createdAt,value
2017-08-20T00:01:22.239Z,5.60
2017-08-20T00:03:50.725Z,6.07
2017-08-20T00:06:19.308Z,6.50
2017-08-20T00:08:47.770Z,5.37
2017-08-20T00:11:16.267Z,6.33
2017-08-20T00:13:44.758Z,6.27
2017-08-20T00:16:14.925Z,6.00
2017-08-20T00:18:43.398Z,6.60
2017-08-20T00:21:18.389Z,6.40
2017-08-20T00:23:48.708Z,7.40
2017-08-20T00:26:20.868Z,6.73
2017-08-20T00:28:52.320Z,6.43
2017-08-20T00:31:20.904Z,7.57
2017-08-20T00:33:50.985Z,7.43
2017-08-20T00:36:20.218Z,5.40
2017-08-20T00:38:49.724Z,6.40
2017-08-20T00:41:18.215Z,7.23
2017-08-20T00:43:51.088Z,6.57
2017-08-20T00:46:25.840Z,6.43
2017-08-20T00:48:54.281Z,5.90
2017-08-20T00:51:27.196Z,6.67
2017-08-20T00:53:55.646Z,6.10
2017-08-20T00:56:28.514Z,7.73
2017-08-20T00:58:57.028Z,5.90
2017-08-20T01:01:27.680Z,7.37
2017-08-20T01:03:56.124Z,7.50
2017-08-20T01:06:24.541Z,8.83
2017-08-20T01:08:52.997Z,6.60
2017-08-20T01:11:29.653Z,7.10
2017-08-20T01:14:00.199Z,6.37
2017-08-20T01:16:30.501Z,7.20
2017-08-20T01:18:59.096Z,7.37
2017-08-20T01:21:29.612Z,7.07
2017-08-20T01:24:00.075Z,6.80
2017-08-20T01:26:30.401Z,7.83
2017-08-20T01:29:04.071Z,7.27
2017-08-20T01:31:34.761Z,7.03
2017-08-20T01:34:07.537Z,7.60
2017-08-20T01:36:38.084Z,7.70
2017-08-20T01:39:08.758Z,6.77
2017-08-20T01:41:45.650Z,6.50
2017-08-20T01:44:16.304Z,6.87
2017-08-20T01:46:44.773Z,7.30
2017-08-20T01:49:13.201Z,6.90
2017-08-20T01:51:50.299Z,6.30
2017-08-20T01:54:20.972Z,7.17
2017-08-20T01:56:53.883Z,6.40
2017-08-20T01:59:24.402Z,6.93
2017-08-20T02:01:59.959Z,6.60
2017-08-20T02:04:39.142Z,5.93
2017-08-20T02:07:07.545Z,6.13
2017-08-20T02:09:40.296Z,7.17
2017-08-20T02:12:14.019Z,7.00
2017-08-20T02:14:49.332Z,6.33
2017-08-20T02:17:20.545Z,8.90
2017-08-20T02:19:55.786Z,6.70
2017-08-20T02:22:26.461Z,6.17
2017-08-20T02:24:59.332Z,6.97
2017-08-20T02:27:34.376Z,6.00
2017-08-20T02:30:04.906Z,6.00
2017-08-20T02:32:35.619Z,6.00
2017-08-20T02:35:10.600Z,5.00
2017-08-20T02:37:42.222Z,8.93
2017-08-20T02:40:17.186Z,5.63
2017-08-20T02:42:50.134Z,5.10
2017-08-20T02:45:23.065Z,5.00
2017-08-20T02:47:51.498Z,4.20
2017-08-20T02:50:22.334Z,5.57
2017-08-20T02:52:52.988Z,4.90
2017-08-20T02:55:31.270Z,5.20
2017-08-20T02:57:59.768Z,4.97
2017-08-20T03:00:32.550Z,4.83
2017-08-20T03:03:16.698Z,5.33
2017-08-20T03:05:47.435Z,5.67
2017-08-20T03:08:15.892Z,5.03
2017-08-20T03:10:44.312Z,5.17
2017-08-20T03:13:17.268Z,5.10
2017-08-20T03:15:52.176Z,7.00
2017-08-20T03:18:20.686Z,5.23
2017-08-20T03:20:49.520Z,6.07
2017-08-20T03:23:18.641Z,5.80
2017-08-20T03:25:49.082Z,4.60
2017-08-20T03:28:24.054Z,5.80
2017-08-20T03:30:52.460Z,4.90
2017-08-20T03:33:24.684Z,5.27
2017-08-20T03:35:57.574Z,5.77
2017-08-20T03:38:28.137Z,4.93
2017-08-20T03:40:58.595Z,5.03
2017-08-20T03:43:31.434Z,5.47
2017-08-20T03:45:59.865Z,4.63
2017-08-20T03:48:32.776Z,5.63
2017-08-20T03:51:05.342Z,4.07
2017-08-20T03:53:38.310Z,5.10
2017-08-20T03:56:08.918Z,4.13
2017-08-20T03:58:40.466Z,4.00
2017-08-20T04:01:08.997Z,5.17
2017-08-20T04:03:39.665Z,4.87
2017-08-20T04:06:10.323Z,4.40
2017-08-20T04:08:41.076Z,4.50
2017-08-20T04:11:11.497Z,5.37
2017-08-20T04:13:39.890Z,5.20
2017-08-20T04:16:12.488Z,4.40
2017-08-20T04:18:43.086Z,4.30
2017-08-20T04:21:13.494Z,4.30
2017-08-20T04:23:48.650Z,5.03
2017-08-20T04:26:19.277Z,4.37
2017-08-20T04:28:49.924Z,3.10
2017-08-20T04:31:18.502Z,3.93
2017-08-20T04:33:46.895Z,3.97
2017-08-20T04:36:15.360Z,3.77
2017-08-20T04:38:43.742Z,4.20
2017-08-20T04:41:12.160Z,4.20
2017-08-20T04:43:47.413Z,4.27
2017-08-20T04:46:17.992Z,3.10
2017-08-20T04:48:48.728Z,3.10
2017-08-20T04:51:17.110Z,3.47
2017-08-20T04:53:45.591Z,3.83
2017-08-20T04:56:14.020Z,3.57
2017-08-20T04:58:42.545Z,3.37
2017-08-20T05:01:13.289Z,2.90
2017-08-20T05:03:41.770Z,3.00
2017-08-20T05:06:10.238Z,3.33
2017-08-20T05:08:38.629Z,3.70
2017-08-20T05:11:11.499Z,4.07
2017-08-20T05:13:39.953Z,3.23
2017-08-20T05:16:10.239Z,3.57
2017-08-20T05:18:38.597Z,4.13
2017-08-20T05:21:07.040Z,3.07
2017-08-20T05:23:35.397Z,3.80
2017-08-20T05:26:08.013Z,2.80
2017-08-20T05:28:41.314Z,2.63
2017-08-20T05:31:14.224Z,3.57
2017-08-20T05:33:44.872Z,3.03
2017-08-20T05:36:13.310Z,3.10
2017-08-20T05:38:46.306Z,4.40
2017-08-20T05:41:17.038Z,3.47
2017-08-20T05:43:49.821Z,3.13
2017-08-20T05:46:27.309Z,2.57
2017-08-20T05:48:57.738Z,3.37
2017-08-20T05:51:28.484Z,3.10
2017-08-20T05:53:56.916Z,3.00
2017-08-20T05:56:32.137Z,3.23
2017-08-20T05:59:00.670Z,3.17
2017-08-20T06:01:30.619Z,3.00
2017-08-20T06:04:03.352Z,2.63
2017-08-20T06:06:31.857Z,2.90
2017-08-20T06:09:04.619Z,2.40
2017-08-20T06:11:33.104Z,3.30
2017-08-20T06:14:08.026Z,3.60
2017-08-20T06:16:36.534Z,3.30
2017-08-20T06:19:09.500Z,2.70
2017-08-20T06:21:37.894Z,2.47
2017-08-20T06:24:12.617Z,3.30
2017-08-20T06:26:43.207Z,2.70
2017-08-20T06:29:13.983Z,2.40
2017-08-20T06:31:44.615Z,3.77
2017-08-20T06:34:15.324Z,3.30
2017-08-20T06:36:46.472Z,2.83
2017-08-20T06:39:23.574Z,2.67
2017-08-20T06:41:58.493Z,3.67
2017-08-20T06:44:31.059Z,3.13
2017-08-20T06:47:01.707Z,2.20
2017-08-20T06:49:32.553Z,2.57
2017-08-20T06:52:02.137Z,3.10
2017-08-20T06:54:30.623Z,2.77
2017-08-20T06:56:58.996Z,2.60
2017-08-20T06:59:34.173Z,2.70
2017-08-20T07:02:03.329Z,2.40
2017-08-20T07:04:33.753Z,2.67
2017-08-20T07:07:05.075Z,2.47
2017-08-20T07:09:33.491Z,3.20
2017-08-20T07:12:06.469Z,2.70
2017-08-20T07:14:34.841Z,2.93
2017-08-20T07:17:03.203Z,3.00
2017-08-20T07:19:31.612Z,3.20
2017-08-20T07:21:59.997Z,2.40
2017-08-20T07:24:29.341Z,2.40
2017-08-20T07:26:57.712Z,2.80
2017-08-20T07:29:27.991Z,3.17
2017-08-20T07:31:56.456Z,2.87
2017-08-20T07:34:24.887Z,2.77
2017-08-20T07:36:53.375Z,2.50
2017-08-20T07:39:22.836Z,3.20
2017-08-20T07:41:56.663Z,3.93
2017-08-20T07:44:25.117Z,2.60
2017-08-20T07:46:53.902Z,3.90
2017-08-20T07:49:22.267Z,2.73
2017-08-20T07:51:50.658Z,2.10
2017-08-20T07:54:19.028Z,3.00
2017-08-20T07:56:48.449Z,2.93
2017-08-20T07:59:16.870Z,3.00
2017-08-20T08:01:46.423Z,3.00
2017-08-20T08:04:15.749Z,2.57
2017-08-20T08:06:45.638Z,2.90
2017-08-20T08:09:14.011Z,2.70
2017-08-20T08:11:43.360Z,3.30
2017-08-20T08:14:11.729Z,2.30
2017-08-20T08:16:43.625Z,3.00
2017-08-20T08:19:12.150Z,2.97
2017-08-20T08:21:40.766Z,2.33
2017-08-20T08:24:09.207Z,2.63
2017-08-20T08:26:40.576Z,2.80
2017-08-20T08:29:08.939Z,2.83
2017-08-20T08:31:37.386Z,2.63
2017-08-20T08:34:05.803Z,2.70
2017-08-20T08:36:34.240Z,3.27
2017-08-20T08:39:03.725Z,2.30
2017-08-20T08:41:34.128Z,3.10
2017-08-20T08:44:02.813Z,3.00
2017-08-20T08:46:31.218Z,3.20
2017-08-20T08:49:00.666Z,3.30
2017-08-20T08:51:29.044Z,2.80
2017-08-20T08:53:57.446Z,3.10
2017-08-20T08:56:25.852Z,3.07
2017-08-20T08:58:54.336Z,4.37
2017-08-20T09:01:23.317Z,3.70
2017-08-20T09:03:51.904Z,2.97
2017-08-20T09:06:20.951Z,2.47
2017-08-20T09:08:49.441Z,2.60
2017-08-20T09:11:17.812Z,2.70
2017-08-20T09:13:46.212Z,3.13
2017-08-20T09:16:14.678Z,2.90
2017-08-20T09:18:43.164Z,3.63
2017-08-20T09:21:11.532Z,2.20
2017-08-20T09:23:40.014Z,2.60
2017-08-20T09:26:08.380Z,1.93
2017-08-20T09:28:36.768Z,2.43
2017-08-20T09:31:05.168Z,2.77
2017-08-20T09:33:34.573Z,2.60
2017-08-20T09:36:05.271Z,2.40
2017-08-20T09:38:38.211Z,2.57
2017-08-20T09:41:08.445Z,2.33
2017-08-20T09:43:36.878Z,2.43
2017-08-20T09:46:05.263Z,2.00
2017-08-20T09:48:42.306Z,2.23
2017-08-20T09:51:10.692Z,2.50
2017-08-20T09:53:41.339Z,2.40
2017-08-20T09:56:11.998Z,3.00
2017-08-20T09:58:40.549Z,2.20
2017-08-20T10:01:17.582Z,2.50
2017-08-20T10:03:46.028Z,2.30
2017-08-20T10:06:18.990Z,2.40
2017-08-20T10:08:47.383Z,2.50
2017-08-20T10:11:15.753Z,1.83
2017-08-20T10:13:45.066Z,1.90
2017-08-20T10:16:13.528Z,2.60
2017-08-20T10:18:41.916Z,2.30
2017-08-20T10:21:10.433Z,1.60
2017-08-20T10:23:38.808Z,1.83
2017-08-20T10:26:07.188Z,1.57
2017-08-20T10:28:35.550Z,2.00
2017-08-20T10:31:04.850Z,2.07
2017-08-20T10:33:33.232Z,2.10
2017-08-20T10:36:01.694Z,2.03
2017-08-20T10:38:30.974Z,1.77
2017-08-20T10:40:59.374Z,3.70
2017-08-20T10:43:29.747Z,2.33
2017-08-20T10:46:02.523Z,1.90
2017-08-20T10:48:31.708Z,1.63
2017-08-20T10:51:03.156Z,2.40
2017-08-20T10:53:36.076Z,2.33
2017-08-20T10:56:15.344Z,2.60
2017-08-20T10:58:48.938Z,2.77
2017-08-20T11:01:17.301Z,1.93
2017-08-20T11:03:46.102Z,2.23
2017-08-20T11:06:16.610Z,2.47
2017-08-20T11:08:45.017Z,1.97
2017-08-20T11:11:14.428Z,2.57
2017-08-20T11:13:44.536Z,2.10
2017-08-20T11:16:15.097Z,1.80
2017-08-20T11:18:45.499Z,1.83
2017-08-20T11:21:16.142Z,2.10
2017-08-20T11:23:44.593Z,1.80
2017-08-20T11:26:12.979Z,1.70
2017-08-20T11:28:41.364Z,2.37
2017-08-20T11:31:09.844Z,2.33
2017-08-20T11:33:38.248Z,1.60
2017-08-20T11:36:06.616Z,2.03
2017-08-20T11:38:35.173Z,1.40
2017-08-20T11:41:03.664Z,2.30
2017-08-20T11:43:40.721Z,2.30
2017-08-20T11:46:09.200Z,1.47
2017-08-20T11:48:37.678Z,2.20
2017-08-20T11:51:06.485Z,2.17
2017-08-20T11:53:34.874Z,2.30
2017-08-20T11:56:03.344Z,1.87
2017-08-20T11:58:31.731Z,1.90
2017-08-20T12:01:00.108Z,2.20
2017-08-20T12:03:28.523Z,1.63
2017-08-20T12:05:56.974Z,2.00
2017-08-20T12:08:26.491Z,2.00
2017-08-20T12:10:54.977Z,1.80
2017-08-20T12:13:23.381Z,2.20
2017-08-20T12:15:51.844Z,1.87
2017-08-20T12:18:21.210Z,1.60
2017-08-20T12:20:51.864Z,2.27
2017-08-20T12:23:22.554Z,1.97
2017-08-20T12:25:50.921Z,2.93
2017-08-20T12:28:19.356Z,2.47
2017-08-20T12:30:47.733Z,1.90
2017-08-20T12:33:16.091Z,1.60
2017-08-20T12:35:45.505Z,3.77
2017-08-20T12:38:13.884Z,3.27
2017-08-20T12:40:42.269Z,1.90
2017-08-20T12:43:10.639Z,1.70
2017-08-20T12:45:40.054Z,1.67
2017-08-20T12:48:08.429Z,2.10
2017-08-20T12:50:36.796Z,2.00
2017-08-20T12:53:05.190Z,2.37
2017-08-20T12:55:33.561Z,1.73
2017-08-20T12:58:01.955Z,2.13
2017-08-20T13:00:30.424Z,2.20
2017-08-20T13:02:59.917Z,1.83
2017-08-20T13:05:29.266Z,1.87
2017-08-20T13:07:57.690Z,2.00
2017-08-20T13:10:26.176Z,2.20
2017-08-20T13:12:54.660Z,1.80
2017-08-20T13:15:23.033Z,2.10
2017-08-20T13:17:51.424Z,1.60
2017-08-20T13:20:19.797Z,2.60
2017-08-20T13:22:48.184Z,1.33
2017-08-20T13:25:16.637Z,1.50
2017-08-20T13:27:45.952Z,2.10
2017-08-20T13:30:14.539Z,1.47
2017-08-20T13:32:43.005Z,1.50
2017-08-20T13:35:11.368Z,1.83
2017-08-20T13:37:39.769Z,1.60
2017-08-20T13:40:09.325Z,1.23
2017-08-20T13:42:37.751Z,1.80
2017-08-20T13:45:06.118Z,1.40
2017-08-20T13:47:34.523Z,1.40
2017-08-20T13:50:02.992Z,0.90
2017-08-20T13:52:31.379Z,1.27
2017-08-20T13:54:59.750Z,1.13
2017-08-20T13:57:28.233Z,1.50
2017-08-20T13:59:56.608Z,2.33
2017-08-20T14:02:25.087Z,1.47
2017-08-20T14:04:53.450Z,1.60
2017-08-20T14:07:21.848Z,1.37
2017-08-20T14:09:50.329Z,1.30
2017-08-20T14:12:18.693Z,1.30
2017-08-20T14:14:47.076Z,1.17
2017-08-20T14:17:15.485Z,1.13
2017-08-20T14:19:44.030Z,1.30
2017-08-20T14:22:13.345Z,1.70
2017-08-20T14:24:41.826Z,1.00
2017-08-20T14:27:10.332Z,1.10
2017-08-20T14:29:38.801Z,0.97
2017-08-20T14:32:07.806Z,1.40
2017-08-20T14:34:36.178Z,0.77
2017-08-20T14:37:04.532Z,0.90
2017-08-20T14:39:33.937Z,1.20
2017-08-20T14:42:02.508Z,0.93
2017-08-20T14:44:30.941Z,1.93
2017-08-20T14:47:00.399Z,1.40
2017-08-20T14:49:28.799Z,1.67
2017-08-20T14:51:57.262Z,0.97
2017-08-20T14:54:25.736Z,1.27
2017-08-20T14:56:54.189Z,1.40
2017-08-20T14:59:22.705Z,0.90
2017-08-20T15:01:51.174Z,1.43
2017-08-20T15:04:20.501Z,1.60
2017-08-20T15:06:48.974Z,1.73
2017-08-20T15:09:17.376Z,1.67
2017-08-20T15:11:45.761Z,1.40
2017-08-20T15:14:14.201Z,1.40
2017-08-20T15:16:42.558Z,1.70
2017-08-20T15:19:10.941Z,1.97
2017-08-20T15:21:39.429Z,1.87
2017-08-20T15:24:07.816Z,1.87
2017-08-20T15:26:36.183Z,2.00
2017-08-20T15:29:04.678Z,1.80
2017-08-20T15:31:33.152Z,1.97
2017-08-20T15:34:01.626Z,1.33
2017-08-20T15:36:30.018Z,1.67
2017-08-20T15:38:58.891Z,2.60
2017-08-20T15:41:28.150Z,1.07
2017-08-20T15:43:56.528Z,1.30
2017-08-20T15:46:25.858Z,1.33
2017-08-20T15:48:54.265Z,1.03
2017-08-20T15:51:22.737Z,1.30
2017-08-20T15:53:51.161Z,1.40
2017-08-20T15:56:19.557Z,1.73
2017-08-20T15:58:47.927Z,1.50
2017-08-20T16:01:16.357Z,1.33
2017-08-20T16:03:44.860Z,1.10
2017-08-20T16:06:13.233Z,2.00
2017-08-20T16:08:41.622Z,1.80
2017-08-20T16:11:09.995Z,1.13
2017-08-20T16:13:38.541Z,1.13
2017-08-20T16:16:06.919Z,1.57
2017-08-20T16:18:35.308Z,1.90
2017-08-20T16:21:03.676Z,2.60
2017-08-20T16:23:33.024Z,1.27
2017-08-20T16:26:01.398Z,1.60
2017-08-20T16:28:29.850Z,1.60
2017-08-20T16:30:58.241Z,2.10
2017-08-20T16:33:26.611Z,1.83
2017-08-20T16:35:55.013Z,1.20
2017-08-20T16:38:23.447Z,1.57
2017-08-20T16:40:51.829Z,1.57
2017-08-20T16:43:20.212Z,1.30
2017-08-20T16:45:48.604Z,1.60
2017-08-20T16:48:17.066Z,1.30
2017-08-20T16:50:46.385Z,1.13
2017-08-20T16:53:14.759Z,2.10
2017-08-20T16:55:44.206Z,1.80
2017-08-20T16:58:13.611Z,1.20
2017-08-20T17:00:42.041Z,1.07
2017-08-20T17:03:11.328Z,1.50
2017-08-20T17:05:39.807Z,1.63
2017-08-20T17:08:08.188Z,2.00
2017-08-20T17:10:36.582Z,1.20
2017-08-20T17:13:05.062Z,1.20
2017-08-20T17:15:33.445Z,1.20
2017-08-20T17:18:02.869Z,1.27
2017-08-20T17:20:32.345Z,1.13
2017-08-20T17:23:01.863Z,1.30
2017-08-20T17:25:30.249Z,1.27
2017-08-20T17:27:58.687Z,0.80
2017-08-20T17:30:28.040Z,1.40
2017-08-20T17:32:56.500Z,1.20
2017-08-20T17:35:24.891Z,1.70
2017-08-20T17:37:53.480Z,1.23
2017-08-20T17:40:22.804Z,1.70
2017-08-20T17:42:51.158Z,1.23
2017-08-20T17:45:21.557Z,1.20
2017-08-20T17:47:50.707Z,1.80
2017-08-20T17:50:19.255Z,1.83
2017-08-20T17:52:47.764Z,1.63
2017-08-20T17:55:16.209Z,1.10
2017-08-20T17:57:44.610Z,1.77
2017-08-20T18:00:13.083Z,1.53
2017-08-20T18:02:41.499Z,1.47
2017-08-20T18:05:09.943Z,1.40
2017-08-20T18:07:38.340Z,1.80
2017-08-20T18:10:06.710Z,2.80
2017-08-20T18:12:35.143Z,1.50
2017-08-20T18:15:04.533Z,1.97
2017-08-20T18:17:32.909Z,1.40
2017-08-20T18:20:01.301Z,1.27
2017-08-20T18:22:30.645Z,1.13
2017-08-20T18:24:59.070Z,1.73
2017-08-20T18:27:27.440Z,1.70
2017-08-20T18:29:56.568Z,1.77
2017-08-20T18:32:24.991Z,1.73
2017-08-20T18:34:53.356Z,2.40
2017-08-20T18:37:21.753Z,1.90
2017-08-20T18:39:50.125Z,2.07
2017-08-20T18:42:18.599Z,1.80
2017-08-20T18:44:46.971Z,1.10
2017-08-20T18:47:15.443Z,1.93
2017-08-20T18:49:43.840Z,1.80
2017-08-20T18:52:12.816Z,1.70
2017-08-20T18:54:42.116Z,2.63
2017-08-20T18:57:12.337Z,2.13
2017-08-20T18:59:40.707Z,1.43
2017-08-20T19:02:09.071Z,1.93
2017-08-20T19:04:39.378Z,1.40
2017-08-20T19:07:07.749Z,1.77
2017-08-20T19:09:36.371Z,2.00
2017-08-20T19:12:04.761Z,2.23
2017-08-20T19:14:34.068Z,1.70
2017-08-20T19:17:02.568Z,1.70
2017-08-20T19:19:30.948Z,2.00
2017-08-20T19:22:00.353Z,2.20
2017-08-20T19:24:29.319Z,1.70
2017-08-20T19:26:57.795Z,2.63
2017-08-20T19:29:26.215Z,2.10
2017-08-20T19:31:54.642Z,2.60
2017-08-20T19:34:23.036Z,2.77
2017-08-20T19:36:52.305Z,1.97
2017-08-20T19:39:20.697Z,1.67
2017-08-20T19:41:49.074Z,2.13
2017-08-20T19:44:17.469Z,2.23
2017-08-20T19:46:45.842Z,2.27
2017-08-20T19:49:14.332Z,2.80
2017-08-20T19:51:42.711Z,2.40
2017-08-20T19:54:11.137Z,2.23
2017-08-20T19:56:39.561Z,2.37
2017-08-20T19:59:08.039Z,2.37
2017-08-20T20:01:36.422Z,2.47
2017-08-20T20:04:04.858Z,2.40
2017-08-20T20:06:33.384Z,2.07
2017-08-20T20:09:01.770Z,1.90
2017-08-20T20:11:30.150Z,2.40
2017-08-20T20:13:58.700Z,3.13
2017-08-20T20:16:27.174Z,2.20
2017-08-20T20:18:55.547Z,2.00
2017-08-20T20:21:23.936Z,2.37
2017-08-20T20:23:52.447Z,2.97
2017-08-20T20:26:20.847Z,2.33
2017-08-20T20:28:49.216Z,2.43
2017-08-20T20:31:18.995Z,2.80
2017-08-20T20:33:47.367Z,1.90
2017-08-20T20:36:20.373Z,2.33
2017-08-20T20:38:48.745Z,1.87
2017-08-20T20:41:18.019Z,2.43
2017-08-20T20:43:47.154Z,2.60
2017-08-20T20:46:15.571Z,1.90
2017-08-20T20:48:44.013Z,2.17
2017-08-20T20:51:13.402Z,2.20
2017-08-20T20:53:41.815Z,2.30
2017-08-20T20:56:10.183Z,2.53
2017-08-20T20:58:38.573Z,2.90
2017-08-20T21:01:07.011Z,2.83
2017-08-20T21:03:35.492Z,2.07
2017-08-20T21:06:03.951Z,2.73
2017-08-20T21:08:32.410Z,2.90
2017-08-20T21:11:00.787Z,2.67
2017-08-20T21:13:30.066Z,2.80
2017-08-20T21:15:58.442Z,2.77
2017-08-20T21:18:26.842Z,3.00
2017-08-20T21:20:55.242Z,3.50
2017-08-20T21:23:24.639Z,2.87
2017-08-20T21:25:53.012Z,2.50
2017-08-20T21:28:21.381Z,3.23
2017-08-20T21:30:49.877Z,2.87
2017-08-20T21:33:20.260Z,3.93
2017-08-20T21:35:48.675Z,3.70
2017-08-20T21:38:17.062Z,3.90
2017-08-20T21:40:45.431Z,3.70
2017-08-20T21:43:13.811Z,3.90
2017-08-20T21:45:42.194Z,3.10
2017-08-20T21:48:10.595Z,3.30
2017-08-20T21:50:39.038Z,2.37
2017-08-20T21:53:07.454Z,3.13
2017-08-20T21:55:35.920Z,3.93
2017-08-20T21:58:04.282Z,3.50
2017-08-20T22:00:32.702Z,3.20
2017-08-20T22:03:01.135Z,3.20
2017-08-20T22:05:29.628Z,3.27
2017-08-20T22:07:58.004Z,2.77
2017-08-20T22:10:26.395Z,3.27
2017-08-20T22:12:54.766Z,3.20
2017-08-20T22:15:23.250Z,3.73
2017-08-20T22:17:51.605Z,3.30
2017-08-20T22:20:20.093Z,2.70
2017-08-20T22:22:48.939Z,3.30
2017-08-20T22:25:17.366Z,4.23
2017-08-20T22:27:45.742Z,2.53
2017-08-20T22:30:14.242Z,2.97
2017-08-20T22:32:42.619Z,3.17
2017-08-20T22:35:11.091Z,3.30
2017-08-20T22:37:39.469Z,3.50
2017-08-20T22:40:07.952Z,4.23
2017-08-20T22:42:36.332Z,4.10
2017-08-20T22:45:04.739Z,2.70
2017-08-20T22:47:33.281Z,4.30
2017-08-20T22:50:01.771Z,2.87
2017-08-20T22:52:31.061Z,2.77
2017-08-20T22:54:59.453Z,3.07
2017-08-20T22:57:27.917Z,2.77
2017-08-20T22:59:57.245Z,2.53
2017-08-20T23:02:25.618Z,2.80
2017-08-20T23:04:54.017Z,3.03
2017-08-20T23:07:22.392Z,2.93
2017-08-20T23:09:51.758Z,3.20
2017-08-20T23:12:20.141Z,2.80
2017-08-20T23:14:48.878Z,2.23
2017-08-20T23:17:17.248Z,2.73
2017-08-20T23:19:45.985Z,3.23
2017-08-20T23:22:14.372Z,3.30
2017-08-20T23:24:42.777Z,3.57
2017-08-20T23:27:11.176Z,3.83
2017-08-20T23:29:39.558Z,3.40
2017-08-20T23:32:08.304Z,3.10
2017-08-20T23:34:37.688Z,3.70
2017-08-20T23:37:06.072Z,2.60
2017-08-20T23:39:34.426Z,2.77
2017-08-20T23:42:02.838Z,2.50
2017-08-20T23:44:31.298Z,2.50
2017-08-20T23:47:00.623Z,2.47
2017-08-20T23:49:29.911Z,4.10
2017-08-20T23:51:58.385Z,3.00
2017-08-20T23:54:26.736Z,2.57
2017-08-20T23:56:55.130Z,2.30
2017-08-20T23:59:23.515Z,3.63
